createdAt,value
2023-04-25T00:00:26.238Z,11.66
2023-04-25T00:02:57.275Z,11.81
2023-04-25T00:05:31.667Z,11.81
2023-04-25T00:08:05.223Z,11.97
2023-04-25T00:10:37.101Z,12.01
2023-04-25T00:13:05.577Z,11.97
2023-04-25T00:15:42.147Z,11.82
2023-04-25T00:18:23.265Z,11.98
2023-04-25T00:20:55.128Z,11.92
2023-04-25T00:23:25.891Z,11.75
2023-04-25T00:25:55.393Z,11.65
2023-04-25T00:28:24.445Z,11.88
2023-04-25T00:30:55.504Z,11.75
2023-04-25T00:33:24.447Z,11.62
2023-04-25T00:36:01.793Z,11.72
2023-04-25T00:38:30.822Z,11.62
2023-04-25T00:41:08.222Z,11.63
2023-04-25T00:43:39.027Z,11.74
2023-04-25T00:46:15.343Z,11.56
2023-04-25T00:48:45.086Z,11.57
2023-04-25T00:51:18.271Z,11.42
2023-04-25T00:53:49.548Z,11.53
2023-04-25T00:56:24.125Z,11.78
2023-04-25T00:58:57.997Z,11.61
2023-04-25T01:01:45.162Z,11.57
2023-04-25T01:04:13.791Z,11.42
2023-04-25T01:07:00.304Z,11.60
2023-04-25T01:09:30.871Z,11.69
2023-04-25T01:12:03.907Z,11.61
2023-04-25T01:14:34.991Z,11.50
2023-04-25T01:17:10.980Z,11.47
2023-04-25T01:19:39.590Z,11.35
2023-04-25T01:22:25.332Z,11.64
2023-04-25T01:24:54.865Z,11.64
2023-04-25T01:27:26.315Z,11.53
2023-04-25T01:29:58.656Z,11.62
2023-04-25T01:32:28.330Z,11.63
2023-04-25T01:34:58.243Z,11.67
2023-04-25T01:37:33.739Z,11.70
2023-04-25T01:40:07.146Z,11.74
2023-04-25T01:42:47.464Z,11.82
2023-04-25T01:45:16.683Z,11.81
2023-04-25T01:47:50.613Z,11.63
2023-04-25T01:50:22.859Z,11.74
2023-04-25T01:52:55.526Z,11.67
2023-04-25T01:55:31.417Z,11.63
2023-04-25T01:58:14.026Z,11.68
2023-04-25T02:01:12.108Z,11.66
2023-04-25T02:03:56.262Z,11.76
2023-04-25T02:06:44.084Z,11.63
2023-04-25T02:09:22.419Z,11.60
2023-04-25T02:11:58.865Z,11.54
2023-04-25T02:14:30.920Z,11.46
2023-04-25T02:17:35.118Z,11.58
2023-04-25T02:20:07.752Z,11.37
2023-04-25T02:22:42.100Z,11.40
2023-04-25T02:25:18.112Z,11.71
2023-04-25T02:27:49.767Z,11.40
2023-04-25T02:30:30.674Z,11.39
2023-04-25T02:33:11.463Z,11.19
2023-04-25T02:35:42.507Z,11.10
2023-04-25T02:38:16.124Z,11.31
2023-04-25T02:40:48.702Z,11.33
2023-04-25T02:43:35.445Z,11.30
2023-04-25T02:46:06.404Z,11.23
2023-04-25T02:48:36.097Z,11.28
2023-04-25T02:51:07.386Z,11.34
2023-04-25T02:53:37.593Z,11.37
2023-04-25T02:56:08.685Z,10.96
2023-04-25T02:58:43.517Z,11.25
2023-04-25T03:01:14.974Z,11.02
2023-04-25T03:03:50.196Z,11.17
2023-04-25T03:06:22.674Z,11.25
2023-04-25T03:08:59.672Z,11.25
2023-04-25T03:11:31.436Z,11.29
2023-04-25T03:14:03.524Z,10.97
2023-04-25T03:16:32.618Z,11.06
2023-04-25T03:19:03.371Z,11.11
2023-04-25T03:21:33.411Z,11.16
2023-04-25T03:24:05.148Z,10.78
2023-04-25T03:26:43.008Z,10.90
2023-04-25T03:29:12.960Z,11.09
2023-04-25T03:31:49.176Z,10.89
2023-04-25T03:34:22.561Z,10.87
2023-04-25T03:37:01.688Z,11.01
2023-04-25T03:39:36.180Z,10.85
2023-04-25T03:42:13.202Z,10.83
2023-04-25T03:44:47.587Z,10.94
2023-04-25T03:47:24.857Z,10.82
2023-04-25T03:49:54.143Z,10.93
2023-04-25T03:52:25.563Z,10.86
2023-04-25T03:54:56.812Z,10.82
2023-04-25T03:57:31.534Z,10.92
2023-04-25T04:00:07.295Z,10.70
2023-04-25T04:02:58.814Z,10.72
2023-04-25T04:05:36.382Z,10.78
2023-04-25T04:08:11.456Z,10.66
2023-04-25T04:10:44.366Z,10.73
2023-04-25T04:13:29.003Z,10.72
2023-04-25T04:16:02.781Z,10.52
2023-04-25T04:18:33.282Z,10.67
2023-04-25T04:21:01.766Z,10.59
2023-04-25T04:23:42.256Z,10.54
2023-04-25T04:26:21.708Z,10.78
2023-04-25T04:29:02.989Z,10.53
2023-04-25T04:32:05.108Z,10.53
2023-04-25T04:34:46.050Z,10.50
2023-04-25T04:37:30.155Z,10.53
2023-04-25T04:40:06.311Z,10.66
2023-04-25T04:43:00.193Z,10.43
2023-04-25T04:46:07.737Z,10.57
2023-04-25T04:49:07.907Z,10.31
2023-04-25T04:51:46.727Z,10.65
2023-04-25T04:54:38.881Z,10.43
2023-04-25T04:57:29.163Z,10.51
2023-04-25T05:00:26.227Z,10.58
2023-04-25T05:03:23.938Z,10.57
2023-04-25T05:06:07.521Z,10.49
2023-04-25T05:09:02.066Z,10.57
2023-04-25T05:11:53.695Z,10.61
2023-04-25T05:14:51.888Z,10.56
2023-04-25T05:17:40.553Z,10.52
2023-04-25T05:20:46.590Z,10.40
2023-04-25T05:23:30.728Z,10.15
2023-04-25T05:26:38.804Z,10.19
2023-04-25T05:29:24.553Z,10.39
2023-04-25T05:32:27.213Z,10.46
2023-04-25T05:35:00.748Z,10.44
2023-04-25T05:37:43.852Z,10.33
2023-04-25T05:40:19.765Z,10.59
2023-04-25T05:42:59.752Z,10.75
2023-04-25T05:45:41.947Z,10.49
2023-04-25T05:48:34.242Z,10.61
2023-04-25T05:51:38.329Z,10.85
2023-04-25T05:54:38.378Z,10.97
2023-04-25T05:57:17.188Z,11.02
2023-04-25T05:59:46.150Z,11.23
2023-04-25T06:02:30.581Z,11.34
2023-04-25T06:05:02.891Z,11.61
2023-04-25T06:07:38.731Z,11.59
2023-04-25T06:10:12.461Z,11.49
2023-04-25T06:12:44.224Z,11.71
2023-04-25T06:15:28.069Z,11.57
2023-04-25T06:18:01.530Z,11.41
2023-04-25T06:20:31.276Z,11.48
2023-04-25T06:23:02.003Z,11.75
2023-04-25T06:26:08.358Z,11.79
2023-04-25T06:28:41.461Z,12.07
2023-04-25T06:31:11.965Z,12.16
2023-04-25T06:33:50.471Z,11.92
2023-04-25T06:36:26.018Z,11.93
2023-04-25T06:39:00.431Z,11.89
2023-04-25T06:41:37.981Z,12.06
2023-04-25T06:44:11.934Z,12.14
2023-04-25T06:46:53.394Z,12.38
2023-04-25T06:49:26.244Z,12.44
2023-04-25T06:51:59.068Z,12.60
2023-04-25T06:54:37.304Z,12.51
2023-04-25T06:57:35.021Z,12.44
2023-04-25T07:00:26.040Z,12.42
2023-04-25T07:02:57.302Z,12.59
2023-04-25T07:05:26.834Z,12.84
2023-04-25T07:07:58.485Z,13.05
2023-04-25T07:10:29.279Z,12.87
2023-04-25T07:13:00.289Z,12.98
2023-04-25T07:15:32.144Z,12.67
2023-04-25T07:18:09.282Z,12.63
2023-04-25T07:20:43.988Z,12.74
2023-04-25T07:23:15.801Z,12.79
2023-04-25T07:25:47.065Z,12.62
2023-04-25T07:28:21.876Z,12.94
2023-04-25T07:30:53.664Z,12.83
2023-04-25T07:33:24.779Z,12.88
2023-04-25T07:35:56.047Z,12.90
2023-04-25T07:38:27.840Z,12.96
2023-04-25T07:40:59.299Z,13.09
2023-04-25T07:43:37.189Z,13.24
2023-04-25T07:46:07.536Z,13.07
2023-04-25T07:48:50.103Z,13.31
2023-04-25T07:51:21.414Z,13.48
2023-04-25T07:53:57.304Z,13.17
2023-04-25T07:56:38.475Z,13.40
2023-04-25T07:59:18.126Z,13.37
2023-04-25T08:01:50.538Z,13.26
2023-04-25T08:04:22.883Z,13.52
2023-04-25T08:06:59.497Z,13.37
2023-04-25T08:09:45.626Z,13.55
2023-04-25T08:12:29.638Z,13.74
2023-04-25T08:15:00.931Z,13.59
2023-04-25T08:17:46.505Z,13.69
2023-04-25T08:20:18.606Z,13.77
2023-04-25T08:22:52.516Z,13.60
2023-04-25T08:25:38.149Z,13.49
2023-04-25T08:28:07.701Z,13.42
2023-04-25T08:30:42.506Z,13.68
2023-04-25T08:33:18.847Z,14.08
2023-04-25T08:36:24.509Z,14.05
2023-04-25T08:39:06.810Z,14.09
2023-04-25T08:41:50.263Z,14.11
2023-04-25T08:44:24.230Z,14.34
2023-04-25T08:46:57.040Z,14.59
2023-04-25T08:49:35.620Z,14.27
2023-04-25T08:52:07.420Z,14.32
2023-04-25T08:54:46.249Z,14.63
2023-04-25T08:57:15.359Z,14.86
2023-04-25T08:59:52.239Z,14.99
2023-04-25T09:02:27.786Z,15.17
2023-04-25T09:04:57.586Z,15.08
2023-04-25T09:07:26.843Z,14.96
2023-04-25T09:10:00.790Z,14.94
2023-04-25T09:12:40.898Z,14.78
2023-04-25T09:18:30.815Z,14.33
2023-04-25T09:21:13.628Z,14.21
2023-04-25T09:23:56.598Z,14.18
2023-04-25T09:26:32.857Z,14.13
2023-04-25T09:29:14.121Z,14.22
2023-04-25T09:31:49.065Z,13.96
2023-04-25T09:34:42.302Z,13.60
2023-04-25T09:37:19.844Z,13.66
2023-04-25T09:40:19.945Z,13.59
2023-04-25T09:43:20.671Z,13.26
2023-04-25T09:45:56.763Z,13.01
2023-04-25T09:48:27.958Z,13.07
2023-04-25T09:51:19.197Z,13.00
2023-04-25T09:53:53.080Z,13.40
2023-04-25T09:57:07.303Z,13.55
2023-04-25T09:59:41.913Z,13.29
2023-04-25T10:02:12.864Z,13.76
2023-04-25T10:04:51.375Z,13.38
2023-04-25T10:07:43.965Z,13.62
2023-04-25T10:10:31.540Z,13.64
2023-04-25T10:13:08.613Z,13.64
2023-04-25T10:15:41.818Z,13.60
2023-04-25T10:18:13.277Z,14.01
2023-04-25T10:20:45.893Z,14.19
2023-04-25T10:23:20.116Z,14.17
2023-04-25T10:25:58.764Z,14.07
2023-04-25T10:28:37.282Z,13.77
2023-04-25T10:31:08.856Z,13.70
2023-04-25T10:33:43.479Z,13.30
2023-04-25T10:36:13.906Z,13.38
2023-04-25T10:38:47.743Z,13.17
2023-04-25T10:41:17.486Z,13.22
2023-04-25T10:43:51.969Z,13.48
2023-04-25T10:46:33.168Z,13.48
2023-04-25T10:49:15.687Z,13.47
2023-04-25T10:51:55.460Z,13.35
2023-04-25T10:54:51.743Z,13.59
2023-04-25T10:57:37.225Z,13.89
2023-04-25T11:00:25.661Z,13.88
2023-04-25T11:03:02.036Z,13.81
2023-04-25T11:05:40.990Z,14.35
2023-04-25T11:08:38.440Z,14.97
2023-04-25T11:11:27.038Z,15.32
2023-04-25T11:13:57.149Z,15.62
2023-04-25T11:16:28.811Z,16.02
2023-04-25T11:19:03.949Z,16.23
2023-04-25T11:21:41.729Z,16.35
2023-04-25T11:24:15.909Z,16.50
2023-04-25T11:26:52.101Z,16.49
2023-04-25T11:29:31.873Z,16.00
2023-04-25T11:32:06.369Z,15.39
2023-04-25T11:34:36.005Z,15.13
2023-04-25T11:37:09.247Z,13.79
2023-04-25T11:39:40.119Z,12.77
2023-04-25T11:42:27.307Z,12.41
2023-04-25T11:45:03.945Z,12.06
2023-04-25T11:47:43.985Z,11.59
2023-04-25T11:50:16.230Z,11.35
2023-04-25T11:52:54.684Z,11.31
2023-04-25T11:55:26.886Z,11.29
2023-04-25T11:58:02.473Z,11.20
2023-04-25T12:00:33.968Z,11.53
2023-04-25T12:03:09.647Z,11.70
2023-04-25T12:05:42.418Z,11.90
2023-04-25T12:08:23.610Z,11.92
2023-04-25T12:10:52.404Z,12.06
2023-04-25T12:13:25.408Z,12.52
2023-04-25T12:16:01.627Z,12.81
2023-04-25T12:18:42.693Z,12.81
2023-04-25T12:21:18.435Z,13.40
2023-04-25T12:23:53.709Z,13.64
2023-04-25T12:26:31.816Z,13.95
2023-04-25T12:29:02.646Z,14.46
2023-04-25T12:31:38.997Z,14.58
2023-04-25T12:34:11.436Z,14.57
2023-04-25T12:36:43.305Z,14.51
2023-04-25T12:39:19.392Z,14.64
2023-04-25T12:41:50.886Z,14.77
2023-04-25T12:44:34.516Z,14.81
2023-04-25T12:47:04.572Z,14.97
2023-04-25T12:49:38.476Z,14.73
2023-04-25T12:52:07.510Z,14.48
2023-04-25T12:54:45.287Z,14.69
2023-04-25T12:57:29.784Z,15.28
2023-04-25T13:00:04.483Z,15.76
2023-04-25T13:02:35.599Z,16.14
2023-04-25T13:05:05.744Z,16.22
2023-04-25T13:07:37.163Z,16.25
2023-04-25T13:10:07.736Z,16.56
2023-04-25T13:12:36.366Z,16.32
2023-04-25T13:15:10.355Z,16.57
2023-04-25T13:17:41.360Z,16.97
2023-04-25T13:20:11.898Z,17.07
2023-04-25T13:22:41.204Z,17.02
2023-04-25T13:25:10.699Z,16.73
2023-04-25T13:27:44.705Z,17.14
2023-04-25T13:30:26.172Z,17.75
2023-04-25T13:32:58.191Z,18.16
2023-04-25T13:35:30.006Z,17.59
2023-04-25T13:37:59.601Z,17.16
2023-04-25T13:40:31.264Z,16.81
2023-04-25T13:43:03.187Z,17.14
2023-04-25T13:45:35.144Z,16.84
2023-04-25T13:48:10.245Z,16.68
2023-04-25T13:50:41.365Z,16.89
2023-04-25T13:53:11.997Z,16.98
2023-04-25T13:55:43.457Z,16.75
2023-04-25T13:58:16.255Z,16.64
2023-04-25T14:00:48.625Z,17.06
2023-04-25T14:03:17.351Z,16.47
2023-04-25T14:05:47.553Z,16.76
2023-04-25T14:08:16.655Z,16.39
2023-04-25T14:10:45.513Z,16.49
2023-04-25T14:13:15.134Z,16.63
2023-04-25T14:15:47.193Z,16.60
2023-04-25T14:18:16.851Z,16.16
2023-04-25T14:20:46.365Z,16.29
2023-04-25T14:23:15.903Z,16.52
2023-04-25T14:25:46.489Z,16.21
2023-04-25T14:28:27.658Z,16.22
2023-04-25T14:31:07.739Z,15.95
2023-04-25T14:33:38.367Z,14.62
2023-04-25T14:36:09.396Z,14.40
2023-04-25T14:38:44.787Z,14.31
2023-04-25T14:41:13.603Z,14.49
2023-04-25T14:43:44.615Z,14.30
2023-04-25T14:46:18.784Z,14.41
2023-04-25T14:48:52.543Z,14.26
2023-04-25T14:51:26.238Z,14.21
2023-04-25T14:53:55.599Z,14.41
2023-04-25T14:56:25.103Z,14.27
2023-04-25T14:58:56.749Z,14.35
2023-04-25T15:01:29.764Z,14.28
2023-04-25T15:03:58.652Z,14.22
2023-04-25T15:06:29.819Z,14.22
2023-04-25T15:08:58.566Z,14.31
2023-04-25T15:11:28.970Z,14.71
2023-04-25T15:14:06.571Z,14.60
2023-04-25T15:16:46.205Z,14.51
2023-04-25T15:19:20.451Z,14.44
2023-04-25T15:21:52.492Z,14.11
2023-04-25T15:24:23.749Z,13.94
2023-04-25T15:26:53.541Z,14.48
2023-04-25T15:29:24.288Z,15.28
2023-04-25T15:31:54.802Z,16.01
2023-04-25T15:34:24.156Z,15.27
2023-04-25T15:36:59.046Z,15.37
2023-04-25T15:39:27.712Z,15.56
2023-04-25T15:41:59.980Z,15.96
2023-04-25T15:44:30.973Z,16.10
2023-04-25T15:47:05.005Z,16.18
2023-04-25T15:49:37.554Z,16.21
2023-04-25T15:52:09.384Z,16.24
2023-04-25T15:54:42.561Z,16.03
2023-04-25T15:57:13.200Z,15.20
2023-04-25T15:59:42.776Z,15.16
2023-04-25T16:02:14.887Z,14.58
2023-04-25T16:04:49.498Z,13.67
2023-04-25T16:07:23.163Z,14.15
2023-04-25T16:09:52.953Z,13.98
2023-04-25T16:12:23.997Z,13.80
2023-04-25T16:14:52.278Z,13.72
2023-04-25T16:17:24.370Z,13.69
2023-04-25T16:19:56.036Z,14.12
2023-04-25T16:22:28.277Z,13.92
2023-04-25T16:24:57.500Z,13.87
2023-04-25T16:27:28.114Z,14.46
2023-04-25T16:29:57.402Z,14.67
2023-04-25T16:32:28.600Z,15.02
2023-04-25T16:34:58.934Z,16.00
2023-04-25T16:37:39.833Z,15.42
2023-04-25T16:40:18.571Z,15.01
2023-04-25T16:42:49.155Z,14.37
2023-04-25T16:45:21.530Z,14.14
2023-04-25T16:48:02.643Z,13.85
2023-04-25T16:50:32.000Z,13.99
2023-04-25T16:53:12.345Z,13.77
2023-04-25T16:55:46.868Z,13.92
2023-04-25T16:58:17.360Z,13.82
2023-04-25T17:00:49.994Z,13.71
2023-04-25T17:03:27.049Z,13.74
2023-04-25T17:06:02.040Z,13.82
2023-04-25T17:08:36.881Z,13.91
2023-04-25T17:11:20.648Z,14.07
2023-04-25T17:13:57.826Z,13.67
2023-04-25T17:16:37.323Z,13.68
2023-04-25T17:19:17.050Z,12.87
2023-04-25T17:21:59.906Z,13.19
2023-04-25T17:24:38.149Z,12.89
2023-04-25T17:27:17.025Z,12.97
2023-04-25T17:29:51.129Z,12.76
2023-04-25T17:32:29.781Z,12.79
2023-04-25T17:35:25.308Z,12.64
2023-04-25T17:38:00.260Z,12.59
2023-04-25T17:40:32.509Z,12.45
2023-04-25T17:43:01.778Z,12.43
2023-04-25T17:45:34.899Z,12.05
2023-04-25T17:48:09.791Z,12.18
2023-04-25T17:50:50.161Z,12.04
2023-04-25T17:53:28.207Z,12.20
2023-04-25T17:56:01.312Z,11.96
2023-04-25T17:58:32.559Z,11.95
2023-04-25T18:01:12.304Z,11.77
2023-04-25T18:03:53.673Z,11.86
2023-04-25T18:06:37.195Z,11.83
2023-04-25T18:09:19.238Z,11.87
2023-04-25T18:11:59.624Z,11.88
2023-04-25T18:14:30.942Z,11.81
2023-04-25T18:17:15.147Z,11.88
2023-04-25T18:20:02.656Z,11.89
2023-04-25T18:22:41.741Z,11.93
2023-04-25T18:25:17.703Z,12.09
2023-04-25T18:27:56.319Z,11.77
2023-04-25T18:30:47.756Z,11.83
2023-04-25T18:33:21.674Z,11.66
2023-04-25T18:35:59.152Z,11.69
2023-04-25T18:38:56.208Z,11.53
2023-04-25T18:41:53.575Z,11.59
2023-04-25T18:44:32.921Z,11.57
2023-04-25T18:47:19.172Z,11.64
2023-04-25T18:49:52.089Z,11.46
2023-04-25T18:52:29.190Z,11.74
2023-04-25T18:55:18.847Z,11.33
2023-04-25T18:57:54.704Z,11.51
2023-04-25T19:00:34.195Z,11.54
2023-04-25T19:03:11.271Z,11.39
2023-04-25T19:05:43.217Z,11.33
2023-04-25T19:08:24.867Z,11.43
2023-04-25T19:11:17.999Z,11.50
2023-04-25T19:14:05.693Z,11.29
2023-04-25T19:16:47.522Z,10.97
2023-04-25T19:19:24.678Z,11.31
2023-04-25T19:22:03.468Z,11.27
2023-04-25T19:27:30.960Z,11.25
2023-04-25T19:30:12.118Z,11.08
2023-04-25T19:32:50.170Z,10.91
2023-04-25T19:35:22.332Z,10.91
2023-04-25T19:38:04.888Z,11.00
2023-04-25T19:40:45.241Z,11.07
2023-04-25T19:43:22.740Z,11.16
2023-04-25T19:45:52.406Z,10.99
2023-04-25T19:48:30.502Z,10.94
2023-04-25T19:51:07.479Z,11.05
2023-04-25T19:53:49.126Z,10.87
2023-04-25T19:56:28.446Z,11.02
2023-04-25T19:59:10.427Z,10.92
2023-04-25T20:01:46.428Z,10.92
2023-04-25T20:04:24.595Z,10.72
2023-04-25T20:06:56.451Z,10.92
2023-04-25T20:09:35.770Z,10.95
2023-04-25T20:12:18.622Z,11.06
2023-04-25T20:15:02.246Z,10.82
2023-04-25T20:17:42.668Z,11.00
2023-04-25T20:20:28.900Z,10.76
2023-04-25T20:23:00.187Z,10.78
2023-04-25T20:25:43.979Z,10.77
2023-04-25T20:28:19.148Z,10.82
2023-04-25T20:30:56.349Z,10.75
2023-04-25T20:33:37.861Z,10.84
2023-04-25T20:36:11.084Z,10.73
2023-04-25T20:38:48.005Z,10.94
2023-04-25T20:41:17.815Z,10.85
2023-04-25T20:43:53.505Z,10.91
2023-04-25T20:46:23.824Z,10.98
2023-04-25T20:48:54.576Z,10.92
2023-04-25T20:51:25.177Z,10.83
2023-04-25T20:53:57.641Z,10.56
2023-04-25T20:56:36.706Z,10.84
2023-04-25T20:59:16.067Z,10.84
2023-04-25T21:01:57.367Z,10.66
2023-04-25T21:04:26.535Z,10.62
2023-04-25T21:07:08.044Z,10.70
2023-04-25T21:09:45.850Z,10.84
2023-04-25T21:12:17.586Z,10.95
2023-04-25T21:14:57.428Z,10.89
2023-04-25T21:17:28.698Z,10.92
2023-04-25T21:20:07.435Z,11.01
2023-04-25T21:22:44.393Z,10.82
2023-04-25T21:25:20.426Z,11.08
2023-04-25T21:27:57.177Z,11.11
2023-04-25T21:30:34.113Z,10.85
2023-04-25T21:33:06.538Z,10.83
2023-04-25T21:35:41.059Z,10.88
2023-04-25T21:38:11.614Z,10.84
2023-04-25T21:40:43.608Z,10.86
2023-04-25T21:43:17.591Z,10.74
2023-04-25T21:46:14.782Z,10.85
2023-04-25T21:48:40.106Z,10.65
2023-04-25T21:51:08.472Z,10.98
2023-04-25T21:53:37.704Z,10.89
2023-04-25T21:56:08.459Z,10.76
2023-04-25T21:58:47.078Z,10.47
2023-04-25T22:01:23.508Z,10.75
2023-04-25T22:04:06.850Z,10.73
2023-04-25T22:06:50.855Z,10.77
2023-04-25T22:09:22.205Z,10.74
2023-04-25T22:11:53.506Z,10.50
2023-04-25T22:14:24.382Z,10.79
2023-04-25T22:16:56.813Z,10.80
2023-04-25T22:19:33.857Z,10.97
2023-04-25T22:22:05.376Z,10.84
2023-04-25T22:24:34.919Z,10.57
2023-04-25T22:27:09.564Z,10.74
2023-04-25T22:29:41.811Z,10.82
2023-04-25T22:32:11.136Z,10.85
2023-04-25T22:34:46.333Z,10.72
2023-04-25T22:37:16.778Z,10.75
2023-04-25T22:39:46.111Z,10.93
2023-04-25T22:42:14.987Z,10.66
2023-04-25T22:44:57.300Z,10.71
2023-04-25T22:47:36.858Z,10.84
2023-04-25T22:50:12.318Z,10.70
2023-04-25T22:52:42.606Z,11.02
2023-04-25T22:55:22.378Z,10.77
2023-04-25T22:58:00.448Z,10.78
2023-04-25T23:00:39.908Z,10.81
2023-04-25T23:03:08.557Z,10.82
2023-04-25T23:05:47.663Z,11.07
2023-04-25T23:08:19.513Z,10.90
2023-04-25T23:10:53.551Z,10.83
2023-04-25T23:13:23.323Z,10.78
2023-04-25T23:16:02.140Z,10.64
2023-04-25T23:18:45.096Z,10.69
2023-04-25T23:21:17.118Z,10.76
2023-04-25T23:23:46.883Z,10.61
2023-04-25T23:26:17.631Z,10.63
2023-04-25T23:28:55.477Z,10.50
2023-04-25T23:31:29.843Z,10.50
2023-04-25T23:34:06.232Z,10.52
2023-04-25T23:36:39.404Z,10.62
2023-04-25T23:39:14.458Z,10.64
2023-04-25T23:41:50.544Z,10.60
2023-04-25T23:44:20.342Z,10.54
2023-04-25T23:46:55.710Z,10.43
2023-04-25T23:49:25.996Z,10.61
2023-04-25T23:51:57.917Z,10.60
2023-04-25T23:54:26.744Z,10.57
2023-04-25T23:56:58.381Z,10.62
2023-04-25T23:59:34.403Z,10.52
